sensor_id;sensor_type;location;lat;lon;timestamp;pressure;altitude;pressure_sealevel;temperature;humidity
30110;BME280;14965;50.660;13.226;2022-07-12T00:01:48;95591.50;;;9.32;81.81
30110;BME280;14965;50.660;13.226;2022-07-12T00:04:14;95591.44;;;9.36;81.90
30110;BME280;14965;50.660;13.226;2022-07-12T00:06:41;95594.94;;;9.40;81.83
30110;BME280;14965;50.660;13.226;2022-07-12T00:09:07;95593.75;;;9.41;81.89
30110;BME280;14965;50.660;13.226;2022-07-12T00:11:34;95591.78;;;9.41;82.00
30110;BME280;14965;50.660;13.226;2022-07-12T00:14:00;95591.00;;;9.41;82.43
30110;BME280;14965;50.660;13.226;2022-07-12T00:16:26;95592.19;;;9.40;82.71
30110;BME280;14965;50.660;13.226;2022-07-12T00:18:52;95593.75;;;9.41;82.80
30110;BME280;14965;50.660;13.226;2022-07-12T00:21:17;95600.06;;;9.41;83.08
30110;BME280;14965;50.660;13.226;2022-07-12T00:23:45;95601.19;;;9.44;83.57
30110;BME280;14965;50.660;13.226;2022-07-12T00:26:11;95595.63;;;9.47;83.64
30110;BME280;14965;50.660;13.226;2022-07-12T00:28:36;95595.91;;;9.57;84.06
30110;BME280;14965;50.660;13.226;2022-07-12T00:31:03;95596.19;;;9.66;84.04
30110;BME280;14965;50.660;13.226;2022-07-12T00:33:29;95597.22;;;9.76;83.97
30110;BME280;14965;50.660;13.226;2022-07-12T00:35:55;95596.28;;;9.86;84.10
30110;BME280;14965;50.660;13.226;2022-07-12T00:38:21;95597.34;;;9.95;84.21
30110;BME280;14965;50.660;13.226;2022-07-12T00:40:49;95594.06;;;10.04;84.58
30110;BME280;14965;50.660;13.226;2022-07-12T00:43:15;95593.53;;;10.13;84.58
30110;BME280;14965;50.660;13.226;2022-07-12T00:45:41;95597.72;;;10.25;84.71
30110;BME280;14965;50.660;13.226;2022-07-12T00:48:08;95599.97;;;10.33;84.94
30110;BME280;14965;50.660;13.226;2022-07-12T00:50:34;95592.75;;;10.39;84.97
30110;BME280;14965;50.660;13.226;2022-07-12T00:53:00;95591.84;;;10.46;84.96
30110;BME280;14965;50.660;13.226;2022-07-12T00:55:26;95594.09;;;10.55;85.39
30110;BME280;14965;50.660;13.226;2022-07-12T00:57:53;95588.00;;;10.63;85.67
30110;BME280;14965;50.660;13.226;2022-07-12T01:00:23;95593.41;;;10.70;85.91
30110;BME280;14965;50.660;13.226;2022-07-12T01:02:50;95600.84;;;10.73;86.50
30110;BME280;14965;50.660;13.226;2022-07-12T01:05:16;95592.88;;;10.79;86.47
30110;BME280;14965;50.660;13.226;2022-07-12T01:07:44;95594.31;;;10.87;87.06
30110;BME280;14965;50.660;13.226;2022-07-12T01:10:10;95591.75;;;10.96;86.67
30110;BME280;14965;50.660;13.226;2022-07-12T01:12:36;95588.44;;;11.05;87.00
30110;BME280;14965;50.660;13.226;2022-07-12T01:15:05;95592.25;;;11.11;87.23
30110;BME280;14965;50.660;13.226;2022-07-12T01:17:31;95583.81;;;11.18;87.42
30110;BME280;14965;50.660;13.226;2022-07-12T01:19:59;95582.97;;;11.21;87.57
30110;BME280;14965;50.660;13.226;2022-07-12T01:22:31;95589.56;;;11.28;87.66
30110;BME280;14965;50.660;13.226;2022-07-12T01:25:01;95583.53;;;11.33;87.67
30110;BME280;14965;50.660;13.226;2022-07-12T01:27:29;95588.53;;;11.41;87.65
30110;BME280;14965;50.660;13.226;2022-07-12T01:29:55;95588.34;;;11.48;87.65
30110;BME280;14965;50.660;13.226;2022-07-12T01:32:21;95588.22;;;11.56;88.02
30110;BME280;14965;50.660;13.226;2022-07-12T01:34:50;95593.59;;;11.63;88.15
30110;BME280;14965;50.660;13.226;2022-07-12T01:37:17;95596.63;;;11.68;88.12
30110;BME280;14965;50.660;13.226;2022-07-12T01:39:43;95595.34;;;11.73;88.65
30110;BME280;14965;50.660;13.226;2022-07-12T01:42:11;95605.50;;;11.80;88.70
30110;BME280;14965;50.660;13.226;2022-07-12T01:44:37;95598.25;;;11.86;88.77
30110;BME280;14965;50.660;13.226;2022-07-12T01:47:03;95604.09;;;11.91;88.70
30110;BME280;14965;50.660;13.226;2022-07-12T01:49:29;95591.72;;;11.96;88.58
30110;BME280;14965;50.660;13.226;2022-07-12T01:51:56;95601.91;;;11.99;88.41
30110;BME280;14965;50.660;13.226;2022-07-12T01:54:25;95608.59;;;12.02;88.42
30110;BME280;14965;50.660;13.226;2022-07-12T01:56:51;95593.97;;;12.01;88.44
30110;BME280;14965;50.660;13.226;2022-07-12T01:59:19;95594.31;;;12.03;88.32
30110;BME280;14965;50.660;13.226;2022-07-12T02:01:46;95591.91;;;12.05;88.11
30110;BME280;14965;50.660;13.226;2022-07-12T02:04:15;95600.91;;;12.09;87.95
30110;BME280;14965;50.660;13.226;2022-07-12T02:06:41;95603.59;;;12.13;88.02
30110;BME280;14965;50.660;13.226;2022-07-12T02:09:07;95600.06;;;12.12;87.78
30110;BME280;14965;50.660;13.226;2022-07-12T02:11:33;95604.38;;;12.13;87.91
30110;BME280;14965;50.660;13.226;2022-07-12T02:13:59;95597.19;;;12.16;88.13
30110;BME280;14965;50.660;13.226;2022-07-12T02:16:26;95598.66;;;12.20;88.29
30110;BME280;14965;50.660;13.226;2022-07-12T02:18:52;95599.03;;;12.23;88.61
30110;BME280;14965;50.660;13.226;2022-07-12T02:21:18;95608.88;;;12.24;88.69
30110;BME280;14965;50.660;13.226;2022-07-12T02:23:44;95596.94;;;12.27;88.67
30110;BME280;14965;50.660;13.226;2022-07-12T02:26:10;95604.03;;;12.28;88.74
30110;BME280;14965;50.660;13.226;2022-07-12T02:28:36;95600.84;;;12.29;89.00
30110;BME280;14965;50.660;13.226;2022-07-12T02:31:01;95603.19;;;12.31;89.19
30110;BME280;14965;50.660;13.226;2022-07-12T02:33:29;95592.44;;;12.33;89.36
30110;BME280;14965;50.660;13.226;2022-07-12T02:35:54;95587.25;;;12.35;89.41
30110;BME280;14965;50.660;13.226;2022-07-12T02:38:20;95596.69;;;12.37;89.42
30110;BME280;14965;50.660;13.226;2022-07-12T02:40:46;95593.94;;;12.37;89.36
30110;BME280;14965;50.660;13.226;2022-07-12T02:43:12;95597.91;;;12.36;89.41
30110;BME280;14965;50.660;13.226;2022-07-12T02:45:38;95601.44;;;12.37;89.47
30110;BME280;14965;50.660;13.226;2022-07-12T02:48:04;95600.66;;;12.36;89.83
30110;BME280;14965;50.660;13.226;2022-07-12T02:50:32;95601.03;;;12.38;89.61
30110;BME280;14965;50.660;13.226;2022-07-12T02:52:57;95597.03;;;12.39;89.76
30110;BME280;14965;50.660;13.226;2022-07-12T02:55:23;95600.59;;;12.40;89.64
30110;BME280;14965;50.660;13.226;2022-07-12T02:57:49;95606.13;;;12.40;89.89
30110;BME280;14965;50.660;13.226;2022-07-12T03:00:15;95605.28;;;12.43;90.37
30110;BME280;14965;50.660;13.226;2022-07-12T03:02:41;95612.34;;;12.44;90.27
30110;BME280;14965;50.660;13.226;2022-07-12T03:05:08;95609.94;;;12.46;90.33
30110;BME280;14965;50.660;13.226;2022-07-12T03:07:35;95611.50;;;12.47;90.67
30110;BME280;14965;50.660;13.226;2022-07-12T03:10:01;95610.28;;;12.48;90.85
30110;BME280;14965;50.660;13.226;2022-07-12T03:12:28;95611.84;;;12.49;90.63
30110;BME280;14965;50.660;13.226;2022-07-12T03:14:54;95617.72;;;12.51;90.59
30110;BME280;14965;50.660;13.226;2022-07-12T03:17:20;95626.81;;;12.52;90.58
30110;BME280;14965;50.660;13.226;2022-07-12T03:19:46;95621.72;;;12.50;90.84
30110;BME280;14965;50.660;13.226;2022-07-12T03:22:12;95621.38;;;12.48;90.69
30110;BME280;14965;50.660;13.226;2022-07-12T03:24:39;95620.22;;;12.45;90.52
30110;BME280;14965;50.660;13.226;2022-07-12T03:27:05;95617.91;;;12.44;90.21
30110;BME280;14965;50.660;13.226;2022-07-12T03:29:31;95615.91;;;12.44;90.38
30110;BME280;14965;50.660;13.226;2022-07-12T03:31:57;95620.66;;;12.44;90.49
30110;BME280;14965;50.660;13.226;2022-07-12T03:34:23;95626.22;;;12.44;90.35
30110;BME280;14965;50.660;13.226;2022-07-12T03:36:49;95617.91;;;12.44;89.98
30110;BME280;14965;50.660;13.226;2022-07-12T03:39:15;95621.88;;;12.43;90.12
30110;BME280;14965;50.660;13.226;2022-07-12T03:41:42;95615.13;;;12.44;90.04
30110;BME280;14965;50.660;13.226;2022-07-12T03:44:08;95618.66;;;12.44;89.56
30110;BME280;14965;50.660;13.226;2022-07-12T03:46:34;95615.13;;;12.44;89.37
30110;BME280;14965;50.660;13.226;2022-07-12T03:49:00;95613.56;;;12.43;89.41
30110;BME280;14965;50.660;13.226;2022-07-12T03:51:26;95625.06;;;12.41;89.43
30110;BME280;14965;50.660;13.226;2022-07-12T03:53:52;95621.88;;;12.43;88.83
30110;BME280;14965;50.660;13.226;2022-07-12T03:56:18;95626.22;;;12.44;88.85
30110;BME280;14965;50.660;13.226;2022-07-12T03:58:45;95627.00;;;12.44;88.77
30110;BME280;14965;50.660;13.226;2022-07-12T04:01:11;95626.22;;;12.44;88.43
30110;BME280;14965;50.660;13.226;2022-07-12T04:03:36;95620.59;;;12.48;88.31
30110;BME280;14965;50.660;13.226;2022-07-12T04:06:02;95625.19;;;12.54;88.56
30110;BME280;14965;50.660;13.226;2022-07-12T04:08:28;95626.13;;;12.64;88.58
30110;BME280;14965;50.660;13.226;2022-07-12T04:10:54;95620.41;;;12.71;88.23
30110;BME280;14965;50.660;13.226;2022-07-12T04:13:20;95630.19;;;12.76;87.66
30110;BME280;14965;50.660;13.226;2022-07-12T04:15:47;95625.69;;;12.82;87.37
30110;BME280;14965;50.660;13.226;2022-07-12T04:18:13;95619.09;;;12.92;86.91
30110;BME280;14965;50.660;13.226;2022-07-12T04:20:39;95624.44;;;12.99;86.44
30110;BME280;14965;50.660;13.226;2022-07-12T04:23:05;95627.22;;;12.99;86.67
30110;BME280;14965;50.660;13.226;2022-07-12T04:25:32;95626.03;;;13.00;87.14
30110;BME280;14965;50.660;13.226;2022-07-12T04:27:58;95624.34;;;13.03;87.58
30110;BME280;14965;50.660;13.226;2022-07-12T04:30:24;95616.63;;;13.10;88.08
30110;BME280;14965;50.660;13.226;2022-07-12T04:32:51;95627.09;;;13.19;88.78
30110;BME280;14965;50.660;13.226;2022-07-12T04:35:17;95616.44;;;13.34;88.75
30110;BME280;14965;50.660;13.226;2022-07-12T04:37:43;95620.47;;;13.58;88.63
30110;BME280;14965;50.660;13.226;2022-07-12T04:40:11;95620.53;;;13.71;87.43
30110;BME280;14965;50.660;13.226;2022-07-12T04:42:37;95623.88;;;13.79;86.78
30110;BME280;14965;50.660;13.226;2022-07-12T04:45:04;95622.38;;;14.29;86.75
30110;BME280;14965;50.660;13.226;2022-07-12T04:47:30;95631.34;;;14.84;83.00
30110;BME280;14965;50.660;13.226;2022-07-12T04:49:57;95628.69;;;15.28;80.44
30110;BME280;14965;50.660;13.226;2022-07-12T04:52:23;95634.38;;;15.46;79.36
30110;BME280;14965;50.660;13.226;2022-07-12T04:54:48;95636.44;;;15.89;78.16
30110;BME280;14965;50.660;13.226;2022-07-12T04:57:14;95640.00;;;16.21;75.48
30110;BME280;14965;50.660;13.226;2022-07-12T04:59:40;95638.28;;;16.14;75.88
30110;BME280;14965;50.660;13.226;2022-07-12T05:02:06;95640.06;;;15.99;76.11
30110;BME280;14965;50.660;13.226;2022-07-12T05:04:32;95642.22;;;15.73;76.77
30110;BME280;14965;50.660;13.226;2022-07-12T05:07:00;95639.06;;;15.49;77.67
30110;BME280;14965;50.660;13.226;2022-07-12T05:09:25;95630.75;;;15.36;78.54
30110;BME280;14965;50.660;13.226;2022-07-12T05:11:51;95638.16;;;15.30;78.82
30110;BME280;14965;50.660;13.226;2022-07-12T05:14:17;95643.84;;;15.27;79.20
30110;BME280;14965;50.660;13.226;2022-07-12T05:16:43;95646.16;;;15.28;79.26
30110;BME280;14965;50.660;13.226;2022-07-12T05:19:09;95636.31;;;15.71;78.59
30110;BME280;14965;50.660;13.226;2022-07-12T05:21:34;95646.13;;;17.37;73.32
30110;BME280;14965;50.660;13.226;2022-07-12T05:24:02;95644.56;;;17.91;68.83
30110;BME280;14965;50.660;13.226;2022-07-12T05:26:28;95649.72;;;17.74;68.94
30110;BME280;14965;50.660;13.226;2022-07-12T05:28:55;95656.19;;;17.62;68.08
30110;BME280;14965;50.660;13.226;2022-07-12T05:31:20;95642.22;;;17.25;68.99
30110;BME280;14965;50.660;13.226;2022-07-12T05:33:46;95648.56;;;17.16;69.85
30110;BME280;14965;50.660;13.226;2022-07-12T05:36:12;95647.66;;;17.38;69.17
30110;BME280;14965;50.660;13.226;2022-07-12T05:38:38;95649.53;;;17.68;68.44
30110;BME280;14965;50.660;13.226;2022-07-12T05:41:05;95649.31;;;18.18;67.35
30110;BME280;14965;50.660;13.226;2022-07-12T05:43:31;95645.34;;;18.43;65.34
30110;BME280;14965;50.660;13.226;2022-07-12T05:45:57;95654.31;;;18.65;65.07
30110;BME280;14965;50.660;13.226;2022-07-12T05:48:23;95646.00;;;19.13;62.49
30110;BME280;14965;50.660;13.226;2022-07-12T05:50:49;95654.03;;;19.69;60.40
30110;BME280;14965;50.660;13.226;2022-07-12T05:53:14;95653.50;;;19.31;60.31
30110;BME280;14965;50.660;13.226;2022-07-12T05:55:40;95652.44;;;20.21;57.84
30110;BME280;14965;50.660;13.226;2022-07-12T05:58:07;95650.59;;;21.94;52.99
30110;BME280;14965;50.660;13.226;2022-07-12T06:00:33;95652.63;;;22.40;51.01
30110;BME280;14965;50.660;13.226;2022-07-12T06:02:59;95659.50;;;21.87;51.83
30110;BME280;14965;50.660;13.226;2022-07-12T06:05:25;95654.84;;;22.30;50.19
30110;BME280;14965;50.660;13.226;2022-07-12T06:07:51;95653.06;;;22.33;49.59
30110;BME280;14965;50.660;13.226;2022-07-12T06:10:17;95663.97;;;21.99;50.65
30110;BME280;14965;50.660;13.226;2022-07-12T06:12:43;95659.31;;;21.96;51.54
30110;BME280;14965;50.660;13.226;2022-07-12T06:15:10;95656.13;;;22.61;50.18
30110;BME280;14965;50.660;13.226;2022-07-12T06:17:36;95670.44;;;22.31;49.52
30110;BME280;14965;50.660;13.226;2022-07-12T06:20:04;95661.19;;;21.79;50.68
30110;BME280;14965;50.660;13.226;2022-07-12T06:22:30;95671.56;;;21.52;51.68
30110;BME280;14965;50.660;13.226;2022-07-12T06:24:56;95672.50;;;21.08;52.26
30110;BME280;14965;50.660;13.226;2022-07-12T06:27:22;95675.25;;;20.14;55.66
30110;BME280;14965;50.660;13.226;2022-07-12T06:29:47;95669.41;;;19.73;57.24
30110;BME280;14965;50.660;13.226;2022-07-12T06:32:21;95676.13;;;19.42;59.49
30110;BME280;14965;50.660;13.226;2022-07-12T06:34:47;95675.56;;;19.14;59.30
30110;BME280;14965;50.660;13.226;2022-07-12T06:37:13;95683.56;;;18.98;59.10
30110;BME280;14965;50.660;13.226;2022-07-12T06:39:38;95669.19;;;19.62;59.19
30110;BME280;14965;50.660;13.226;2022-07-12T06:42:05;95676.53;;;20.13;56.61
30110;BME280;14965;50.660;13.226;2022-07-12T06:44:31;95681.16;;;21.25;53.45
30110;BME280;14965;50.660;13.226;2022-07-12T06:46:57;95677.50;;;21.75;51.28
30110;BME280;14965;50.660;13.226;2022-07-12T06:49:24;95670.69;;;21.26;52.75
30110;BME280;14965;50.660;13.226;2022-07-12T06:51:51;95680.69;;;20.77;53.80
30110;BME280;14965;50.660;13.226;2022-07-12T06:54:17;95677.78;;;20.27;56.97
30110;BME280;14965;50.660;13.226;2022-07-12T06:56:43;95689.19;;;20.08;56.53
30110;BME280;14965;50.660;13.226;2022-07-12T06:59:09;95682.28;;;19.80;57.15
30110;BME280;14965;50.660;13.226;2022-07-12T07:01:35;95682.41;;;19.37;58.40
30110;BME280;14965;50.660;13.226;2022-07-12T07:04:00;95683.69;;;19.03;59.34
30110;BME280;14965;50.660;13.226;2022-07-12T07:06:28;95681.50;;;19.55;58.82
30110;BME280;14965;50.660;13.226;2022-07-12T07:08:53;95689.41;;;20.34;56.96
30110;BME280;14965;50.660;13.226;2022-07-12T07:11:19;95686.03;;;21.10;54.16
30110;BME280;14965;50.660;13.226;2022-07-12T07:13:45;95691.13;;;21.41;52.86
30110;BME280;14965;50.660;13.226;2022-07-12T07:16:11;95689.88;;;20.92;53.70
30110;BME280;14965;50.660;13.226;2022-07-12T07:18:37;95692.44;;;19.92;56.60
30110;BME280;14965;50.660;13.226;2022-07-12T07:21:03;95702.28;;;19.39;58.33
30110;BME280;14965;50.660;13.226;2022-07-12T07:23:30;95698.34;;;18.98;59.91
30110;BME280;14965;50.660;13.226;2022-07-12T07:25:56;95699.84;;;19.08;59.17
30110;BME280;14965;50.660;13.226;2022-07-12T07:28:22;95697.75;;;19.18;59.22
30110;BME280;14965;50.660;13.226;2022-07-12T07:30:47;95692.34;;;19.38;59.03
30110;BME280;14965;50.660;13.226;2022-07-12T07:33:13;95697.22;;;20.15;56.23
30110;BME280;14965;50.660;13.226;2022-07-12T07:35:39;95693.69;;;20.59;54.15
30110;BME280;14965;50.660;13.226;2022-07-12T07:38:05;95689.69;;;20.81;51.76
30110;BME280;14965;50.660;13.226;2022-07-12T07:40:33;95688.06;;;21.24;51.67
30110;BME280;14965;50.660;13.226;2022-07-12T07:42:59;95690.34;;;21.81;50.45
30110;BME280;14965;50.660;13.226;2022-07-12T07:45:24;95694.28;;;21.89;49.60
30110;BME280;14965;50.660;13.226;2022-07-12T07:47:50;95694.00;;;21.87;48.97
30110;BME280;14965;50.660;13.226;2022-07-12T07:50:16;95691.81;;;21.97;47.95
30110;BME280;14965;50.660;13.226;2022-07-12T07:52:42;95692.88;;;21.59;50.23
30110;BME280;14965;50.660;13.226;2022-07-12T07:55:08;95685.81;;;21.28;50.38
30110;BME280;14965;50.660;13.226;2022-07-12T07:57:35;95697.09;;;21.49;50.51
30110;BME280;14965;50.660;13.226;2022-07-12T08:00:02;95694.91;;;21.38;49.74
30110;BME280;14965;50.660;13.226;2022-07-12T08:02:29;95694.16;;;20.87;50.99
30110;BME280;14965;50.660;13.226;2022-07-12T08:04:55;95691.44;;;20.78;51.66
30110;BME280;14965;50.660;13.226;2022-07-12T08:07:20;95691.75;;;20.66;51.72
30110;BME280;14965;50.660;13.226;2022-07-12T08:09:47;95687.28;;;20.44;53.21
30110;BME280;14965;50.660;13.226;2022-07-12T08:12:12;95690.31;;;19.87;54.26
30110;BME280;14965;50.660;13.226;2022-07-12T08:14:40;95683.00;;;19.41;55.73
30110;BME280;14965;50.660;13.226;2022-07-12T08:17:05;95684.91;;;19.35;56.53
30110;BME280;14965;50.660;13.226;2022-07-12T08:19:31;95686.81;;;19.29;56.13
30110;BME280;14965;50.660;13.226;2022-07-12T08:21:57;95691.22;;;18.88;57.27
30110;BME280;14965;50.660;13.226;2022-07-12T08:24:23;95691.88;;;18.83;57.57
30110;BME280;14965;50.660;13.226;2022-07-12T08:26:49;95684.94;;;19.26;54.89
30110;BME280;14965;50.660;13.226;2022-07-12T08:29:15;95690.28;;;19.72;54.25
30110;BME280;14965;50.660;13.226;2022-07-12T08:31:42;95679.97;;;19.93;55.78
30110;BME280;14965;50.660;13.226;2022-07-12T08:34:08;95699.50;;;19.87;54.03
30110;BME280;14965;50.660;13.226;2022-07-12T08:36:34;95690.50;;;19.83;53.74
30110;BME280;14965;50.660;13.226;2022-07-12T08:39:00;95695.94;;;19.87;53.29
30110;BME280;14965;50.660;13.226;2022-07-12T08:41:26;95687.75;;;19.02;52.95
30110;BME280;14965;50.660;13.226;2022-07-12T08:43:52;95692.66;;;18.83;52.91
30110;BME280;14965;50.660;13.226;2022-07-12T08:46:17;95681.22;;;19.29;55.40
30110;BME280;14965;50.660;13.226;2022-07-12T08:48:45;95693.84;;;20.11;53.72
30110;BME280;14965;50.660;13.226;2022-07-12T08:51:13;95680.72;;;20.62;48.74
30110;BME280;14965;50.660;13.226;2022-07-12T08:53:40;95680.53;;;20.36;49.91
30110;BME280;14965;50.660;13.226;2022-07-12T08:56:07;95688.19;;;19.97;51.80
30110;BME280;14965;50.660;13.226;2022-07-12T08:59:09;95686.69;;;19.72;52.61
30110;BME280;14965;50.660;13.226;2022-07-12T09:01:44;95687.84;;;20.33;52.28
30110;BME280;14965;50.660;13.226;2022-07-12T09:04:13;95675.81;;;20.57;48.93
30110;BME280;14965;50.660;13.226;2022-07-12T09:06:39;95697.34;;;20.36;49.20
30110;BME280;14965;50.660;13.226;2022-07-12T09:09:05;95689.56;;;19.86;50.54
30110;BME280;14965;50.660;13.226;2022-07-12T09:11:31;95690.91;;;20.06;51.71
30110;BME280;14965;50.660;13.226;2022-07-12T09:13:57;95694.31;;;20.39;51.89
30110;BME280;14965;50.660;13.226;2022-07-12T09:16:25;95690.59;;;20.57;50.13
30110;BME280;14965;50.660;13.226;2022-07-12T09:19:14;95696.84;;;20.37;50.10
30110;BME280;14965;50.660;13.226;2022-07-12T09:21:48;95693.78;;;20.50;50.42
30110;BME280;14965;50.660;13.226;2022-07-12T09:24:14;95689.03;;;20.56;48.75
30110;BME280;14965;50.660;13.226;2022-07-12T09:26:40;95697.19;;;20.01;48.46
30110;BME280;14965;50.660;13.226;2022-07-12T09:29:06;95696.34;;;20.09;49.09
30110;BME280;14965;50.660;13.226;2022-07-12T09:31:41;95702.75;;;19.71;52.23
30110;BME280;14965;50.660;13.226;2022-07-12T09:34:07;95693.78;;;19.82;49.59
30110;BME280;14965;50.660;13.226;2022-07-12T09:36:35;95687.28;;;19.76;49.46
30110;BME280;14965;50.660;13.226;2022-07-12T09:39:04;95690.06;;;19.61;49.68
30110;BME280;14965;50.660;13.226;2022-07-12T09:41:29;95702.97;;;19.58;50.41
30110;BME280;14965;50.660;13.226;2022-07-12T09:43:57;95696.50;;;18.95;48.80
30110;BME280;14965;50.660;13.226;2022-07-12T09:46:23;95702.84;;;18.53;51.05
30110;BME280;14965;50.660;13.226;2022-07-12T09:48:49;95699.25;;;19.04;55.47
30110;BME280;14965;50.660;13.226;2022-07-12T09:51:17;95693.66;;;19.28;49.69
30110;BME280;14965;50.660;13.226;2022-07-12T09:53:49;95698.22;;;19.74;49.13
30110;BME280;14965;50.660;13.226;2022-07-12T09:56:18;95700.53;;;20.29;51.17
30110;BME280;14965;50.660;13.226;2022-07-12T09:58:52;95685.38;;;20.50;48.84
30110;BME280;14965;50.660;13.226;2022-07-12T10:01:19;95698.53;;;20.74;47.32
30110;BME280;14965;50.660;13.226;2022-07-12T10:03:45;95696.22;;;20.57;47.75
30110;BME280;14965;50.660;13.226;2022-07-12T10:06:16;95693.66;;;20.89;47.49
30110;BME280;14965;50.660;13.226;2022-07-12T10:08:42;95694.06;;;20.82;43.48
30110;BME280;14965;50.660;13.226;2022-07-12T10:11:12;95691.25;;;20.82;42.87
30110;BME280;14965;50.660;13.226;2022-07-12T10:13:38;95698.09;;;20.96;42.02
30110;BME280;14965;50.660;13.226;2022-07-12T10:16:07;95698.53;;;20.59;41.33
30110;BME280;14965;50.660;13.226;2022-07-12T10:18:34;95702.53;;;20.13;45.81
30110;BME280;14965;50.660;13.226;2022-07-12T10:21:00;95695.41;;;19.74;47.13
30110;BME280;14965;50.660;13.226;2022-07-12T10:23:33;95709.53;;;19.31;47.38
30110;BME280;14965;50.660;13.226;2022-07-12T10:25:58;95717.63;;;18.96;48.82
30110;BME280;14965;50.660;13.226;2022-07-12T10:29:03;95709.94;;;19.39;48.50
30110;BME280;14965;50.660;13.226;2022-07-12T10:31:33;95703.88;;;19.64;46.35
30110;BME280;14965;50.660;13.226;2022-07-12T10:34:12;95698.84;;;19.69;46.13
30110;BME280;14965;50.660;13.226;2022-07-12T10:37:09;95697.34;;;19.58;47.00
30110;BME280;14965;50.660;13.226;2022-07-12T10:39:35;95710.56;;;19.67;45.25
30110;BME280;14965;50.660;13.226;2022-07-12T10:42:16;95705.13;;;19.63;47.67
30110;BME280;14965;50.660;13.226;2022-07-12T10:44:47;95708.84;;;19.70;49.02
30110;BME280;14965;50.660;13.226;2022-07-12T10:47:15;95709.19;;;20.01;45.76
30110;BME280;14965;50.660;13.226;2022-07-12T10:49:48;95698.19;;;20.27;44.50
30110;BME280;14965;50.660;13.226;2022-07-12T10:52:25;95706.47;;;19.92;45.02
30110;BME280;14965;50.660;13.226;2022-07-12T10:55:17;95708.41;;;19.86;48.10
30110;BME280;14965;50.660;13.226;2022-07-12T10:57:46;95704.47;;;20.22;48.51
30110;BME280;14965;50.660;13.226;2022-07-12T11:00:14;95702.75;;;20.84;47.19
30110;BME280;14965;50.660;13.226;2022-07-12T11:02:40;95692.34;;;21.20;44.47
30110;BME280;14965;50.660;13.226;2022-07-12T11:05:07;95693.16;;;21.26;43.56
30110;BME280;14965;50.660;13.226;2022-07-12T11:07:34;95697.66;;;21.32;42.64
30110;BME280;14965;50.660;13.226;2022-07-12T11:10:00;95702.66;;;21.28;40.62
30110;BME280;14965;50.660;13.226;2022-07-12T11:12:28;95702.25;;;21.00;46.18
30110;BME280;14965;50.660;13.226;2022-07-12T11:14:54;95695.75;;;21.09;43.40
30110;BME280;14965;50.660;13.226;2022-07-12T11:17:25;95706.72;;;20.77;45.13
30110;BME280;14965;50.660;13.226;2022-07-12T11:20:07;95707.00;;;20.35;45.99
30110;BME280;14965;50.660;13.226;2022-07-12T11:22:33;95711.28;;;20.45;46.53
30110;BME280;14965;50.660;13.226;2022-07-12T11:25:00;95711.69;;;20.68;47.56
30110;BME280;14965;50.660;13.226;2022-07-12T11:27:26;95709.44;;;20.72;45.84
30110;BME280;14965;50.660;13.226;2022-07-12T11:29:58;95710.69;;;20.41;45.63
30110;BME280;14965;50.660;13.226;2022-07-12T11:32:36;95714.84;;;20.16;46.98
30110;BME280;14965;50.660;13.226;2022-07-12T11:35:03;95709.41;;;20.12;47.37
30110;BME280;14965;50.660;13.226;2022-07-12T11:37:29;95701.22;;;20.24;43.95
30110;BME280;14965;50.660;13.226;2022-07-12T11:39:55;95693.66;;;20.30;45.74
30110;BME280;14965;50.660;13.226;2022-07-12T11:42:21;95712.41;;;20.09;45.68
30110;BME280;14965;50.660;13.226;2022-07-12T11:44:49;95708.00;;;19.78;46.83
30110;BME280;14965;50.660;13.226;2022-07-12T11:47:17;95712.50;;;19.76;47.57
30110;BME280;14965;50.660;13.226;2022-07-12T11:49:47;95703.66;;;19.92;47.05
30110;BME280;14965;50.660;13.226;2022-07-12T11:52:13;95702.94;;;20.21;45.86
30110;BME280;14965;50.660;13.226;2022-07-12T11:54:39;95694.81;;;20.38;46.15
30110;BME280;14965;50.660;13.226;2022-07-12T11:57:07;95702.22;;;20.65;44.45
30110;BME280;14965;50.660;13.226;2022-07-12T11:59:33;95695.75;;;20.94;43.80
30110;BME280;14965;50.660;13.226;2022-07-12T12:02:04;95698.06;;;21.10;43.54
30110;BME280;14965;50.660;13.226;2022-07-12T12:04:30;95704.91;;;20.59;43.21
30110;BME280;14965;50.660;13.226;2022-07-12T12:06:57;95695.06;;;20.10;44.53
30110;BME280;14965;50.660;13.226;2022-07-12T12:09:23;95690.97;;;19.58;47.33
30110;BME280;14965;50.660;13.226;2022-07-12T12:11:49;95694.06;;;19.60;48.92
30110;BME280;14965;50.660;13.226;2022-07-12T12:14:15;95695.16;;;20.01;48.70
30110;BME280;14965;50.660;13.226;2022-07-12T12:16:41;95689.97;;;20.38;48.52
30110;BME280;14965;50.660;13.226;2022-07-12T12:19:11;95685.16;;;20.69;46.13
30110;BME280;14965;50.660;13.226;2022-07-12T12:21:37;95689.03;;;20.86;43.04
30110;BME280;14965;50.660;13.226;2022-07-12T12:24:11;95677.03;;;20.56;44.23
30110;BME280;14965;50.660;13.226;2022-07-12T12:26:38;95677.22;;;20.52;46.31
30110;BME280;14965;50.660;13.226;2022-07-12T12:29:03;95692.03;;;20.38;46.42
30110;BME280;14965;50.660;13.226;2022-07-12T12:31:29;95685.91;;;20.10;46.35
30110;BME280;14965;50.660;13.226;2022-07-12T12:33:55;95694.44;;;20.15;47.06
30110;BME280;14965;50.660;13.226;2022-07-12T12:36:23;95692.13;;;20.29;45.94
30110;BME280;14965;50.660;13.226;2022-07-12T12:38:52;95684.69;;;20.40;45.14
30110;BME280;14965;50.660;13.226;2022-07-12T12:41:20;95695.06;;;20.49;45.32
30110;BME280;14965;50.660;13.226;2022-07-12T12:43:46;95695.03;;;20.20;44.56
30110;BME280;14965;50.660;13.226;2022-07-12T12:46:12;95694.91;;;20.14;46.23
30110;BME280;14965;50.660;13.226;2022-07-12T12:48:46;95692.41;;;20.16;46.10
30110;BME280;14965;50.660;13.226;2022-07-12T12:51:13;95688.72;;;20.39;47.56